Latest Weather Observations for Ballina

IDN60801

Issued at 10:03 pm EDT Tuesday 24 January 2017 (issued every 30 minutes, with the page automatically refreshed every 10 minutes)

About weather observations | Map of weather stations | Latest weather observations for NSW | Other Formats
Station Details ID: 058198 Name: BALLINA AIRPORT AWS Lat: -28.84 Lon: 153.56 Height: 1.3 m
Data from the previous 72 hours. | See also: Recent months at Ballina
Date/Time
EDT
Temp
°C
App
Temp
°C
Dew
Point
°C
Rel
Hum
%
Delta-T
°C
Wind Press
QNH
hPa
Press
MSL
hPa
Rain since
9am
mm
Dir  Spd
km/h
Gust
km/h
Spd
kts
Gust
kts
24/10:00pm 25.4 24.3 19.5 70 3.8 N 24 26 13 14 1013.2 1013.2 -
24/09:30pm 25.4 24.3 19.5 70 3.8 N 24 35 13 19 1012.8 1012.8 0.0
24/09:00pm 25.6 24.4 19.3 68 4.0 N 24 39 13 21 1012.8 1012.8 0.0
24/08:30pm 25.6 24.7 19.0 67 4.2 NNE 22 32 12 17 1012.6 1012.6 0.0
24/08:00pm 25.8 24.7 18.7 65 4.5 NNE 22 30 12 16 1012.3 1012.3 0.0
24/07:30pm 26.3 25.2 18.7 63 4.9 NNE 22 33 12 18 1012.0 1012.0 0.0
24/07:00pm 27.0 25.2 18.8 60 5.3 NNE 26 37 14 20 1011.5 1011.5 0.0
24/06:30pm 27.7 25.3 19.0 59 5.6 NNE 30 43 16 23 1011.3 1011.3 0.0
24/06:00pm 28.3 26.2 19.0 57 6.0 N 28 41 15 22 1011.3 1011.3 0.0
24/05:30pm 29.1 27.3 18.8 53 6.6 NNE 26 41 14 22 1011.4 1011.4 0.0
24/05:00pm 29.3 27.1 18.7 52 6.8 N 28 39 15 21 1011.5 1011.5 0.0
24/04:30pm 30.0 28.0 19.1 52 7.1 N 28 41 15 22 1011.7 1011.7 0.0
24/04:00pm 30.1 27.6 18.8 50 7.3 N 30 37 16 20 1011.9 1011.9 0.0
24/03:30pm 30.0 27.7 18.4 49 7.5 NNE 28 37 15 20 1012.2 1012.2 0.0
24/03:00pm 30.4 27.8 17.8 46 8.0 N 28 35 15 19 1012.4 1012.4 0.0
24/02:30pm 31.1 29.5 17.4 44 8.7 NNE 22 32 12 17 1012.9 1012.9 0.0
24/02:00pm 30.4 28.2 16.8 44 8.6 NNE 24 33 13 18 1013.1 1013.1 0.0
24/01:30pm 31.0 29.6 18.0 45 8.3 NNE 22 32 12 17 1013.2 1013.2 0.0
24/01:00pm 30.5 28.8 17.2 44 8.4 NNE 22 37 12 20 1013.5 1013.5 0.0
24/12:30pm 30.4 28.2 17.8 46 8.0 NE 26 39 14 21 1013.8 1013.8 0.0
24/12:00pm 30.6 30.1 17.0 44 8.6 N 15 24 8 13 1014.4 1014.4 0.0
24/11:30am 29.7 29.4 15.4 42 8.8 N 11 20 6 11 1015.0 1015.0 0.0
24/11:00am 28.5 27.8 15.4 45 8.0 NW 13 20 7 11 1015.3 1015.3 0.0
24/10:30am 28.3 28.1 15.6 46 7.8 NW 11 17 6 9 1015.9 1015.9 0.0
24/10:00am 27.4 25.9 15.4 48 7.3 NNW 17 26 9 14 1016.1 1016.1 0.0
24/09:30am 27.0 26.4 16.6 53 6.4 NW 15 22 8 12 1016.3 1016.3 0.0
24/09:00am 26.2 25.0 16.2 54 6.1 NNW 17 22 9 12 1016.3 1016.3 0.0
24/08:30am 25.3 25.1 16.7 59 5.3 NNW 13 20 7 11 1016.4 1016.4 0.0
24/08:00am 24.3 24.3 17.1 64 4.4 NNW 13 17 7 9 1016.3 1016.3 0.0
24/07:30am 22.7 23.6 16.7 69 3.7 NNW 7 13 4 7 1016.1 1016.1 0.0
24/07:00am 20.5 21.2 16.1 76 2.6 N 7 9 4 5 1016.0 1016.0 0.0
24/06:30am 19.0 19.6 15.7 81 2.0 N 7 11 4 6 1015.7 1015.7 0.0
24/06:00am 18.6 19.3 15.5 82 1.8 NNW 6 9 3 5 1015.5 1015.5 0.0
24/05:30am 18.9 19.2 16.1 84 1.7 N 9 11 5 6 1015.2 1015.2 0.0
24/05:00am 18.9 19.8 16.7 87 1.3 N 7 7 4 4 1015.1 1015.1 0.0
24/04:30am 19.7 20.5 16.3 81 2.0 N 7 9 4 5 1015.2 1015.2 0.0
24/04:00am 19.5 20.2 16.0 80 2.1 N 7 9 4 5 1015.1 1015.1 0.0
24/03:30am 19.6 19.9 16.1 80 2.1 N 9 11 5 6 1015.1 1015.1 0.0
24/03:00am 19.8 20.2 16.3 80 2.1 N 9 11 5 6 1015.0 1015.0 0.0
24/02:30am 20.1 20.4 16.1 78 2.4 N 9 13 5 7 1015.3 1015.3 0.0
24/02:00am 20.4 20.8 16.4 78 2.4 N 9 11 5 6 1015.6 1015.6 0.0
24/01:30am 20.7 21.3 16.7 78 2.4 N 9 13 5 7 1015.7 1015.7 0.0
24/01:00am 20.7 21.3 16.9 79 2.3 N 9 11 5 6 1015.9 1015.9 0.0
24/12:30am 21.1 22.2 17.1 78 2.4 N 7 9 4 5 1016.3 1016.3 0.0
24/12:00am 21.3 22.4 17.1 77 2.6 N 7 9 4 5 1016.5 1016.5 0.0
 
Date/Time
EDT
Temp
°C
App
Temp
°C
Dew
Point
°C
Rel
Hum
%
Delta-T
°C
Wind Press
QNH
hPa
Press
MSL
hPa
Rain since
9am
mm
Dir  Spd
km/h
Gust
km/h
Spd
kts
Gust
kts
23/11:30pm 21.1 21.7 16.7 76 2.7 N 9 11 5 6 1016.6 1016.6 0.0
23/11:00pm 21.8 22.2 16.3 71 3.3 NNE 9 13 5 7 1016.5 1016.5 0.0
23/10:30pm 22.1 22.0 15.9 68 3.7 NNE 11 13 6 7 1016.5 1016.5 0.0
23/10:00pm 22.4 22.2 15.7 66 4.0 NNE 11 17 6 9 1016.6 1016.6 0.0
23/09:30pm 22.8 22.2 15.6 64 4.3 NNE 13 19 7 10 1016.5 1016.5 0.0
23/09:00pm 22.6 21.9 15.4 64 4.3 NNE 13 19 7 10 1016.4 1016.4 0.0
23/08:30pm 23.7 22.7 15.7 61 4.8 NNE 15 22 8 12 1016.0 1016.0 0.0
23/08:00pm 24.0 22.6 15.5 59 5.1 NNE 17 22 9 12 1016.0 1016.0 0.0
23/07:30pm 24.6 23.2 15.5 57 5.5 NNE 17 28 9 15 1015.9 1015.9 0.0
23/07:00pm 25.3 23.3 15.6 55 5.9 NE 20 30 11 16 1015.6 1015.6 0.0
23/06:30pm 25.9 23.1 15.3 52 6.4 NE 24 32 13 17 1015.2 1015.2 0.0
23/06:00pm 26.4 24.0 15.4 50 6.7 NE 22 30 12 16 1014.9 1014.9 0.0
23/05:30pm 26.7 23.5 15.4 50 6.9 NE 26 33 14 18 1014.7 1014.7 0.0
23/05:00pm 26.9 24.3 15.0 48 7.2 NE 22 32 12 17 1014.9 1014.9 0.0
23/04:30pm 27.5 24.9 15.8 48 7.2 NE 24 32 13 17 1015.0 1015.0 0.0
23/04:00pm 27.4 24.1 15.1 47 7.5 NE 26 35 14 19 1015.1 1015.1 0.0
23/03:30pm 27.8 26.5 18.2 56 6.1 NE 22 32 12 17 1015.4 1015.4 0.0
23/03:00pm 27.6 25.9 18.0 55 6.1 NE 24 33 13 18 1015.5 1015.5 0.0
23/02:30pm 27.6 25.8 15.9 49 7.2 ENE 20 30 11 16 1015.7 1015.7 0.0
23/02:00pm 27.6 25.8 16.9 52 6.7 NE 22 32 12 17 1016.0 1016.0 0.0
23/01:30pm 27.9 26.7 17.4 52 6.6 NE 20 28 11 15 1016.4 1016.4 0.0
23/01:00pm 27.7 26.4 16.9 51 6.7 NE 19 32 10 17 1016.6 1016.6 0.0
23/12:30pm 27.6 25.9 17.2 53 6.5 ENE 22 32 12 17 1017.0 1017.0 0.0
23/12:00pm 26.5 24.6 15.8 51 6.5 NE 20 30 11 16 1017.2 1017.2 0.0
23/11:30am 27.6 26.6 17.5 54 6.4 ENE 19 28 10 15 1017.5 1017.5 0.0
23/11:00am 27.4 26.3 16.4 51 6.8 E 17 24 9 13 1017.7 1017.7 0.0
23/10:30am 26.4 24.6 14.5 48 7.1 ENE 17 26 9 14 1017.8 1017.8 0.0
23/10:00am 25.9 25.0 13.7 47 7.2 ENE 11 20 6 11 1017.8 1017.8 0.0
23/09:30am 26.1 25.4 14.2 48 7.1 E 11 19 6 10 1017.7 1017.7 0.0
23/09:00am 25.7 24.0 12.5 44 7.6 ENE 13 19 7 10 1017.7 1017.7 0.0
23/08:30am 25.6 27.4 17.5 61 5.1 SSW 4 11 2 6 1017.7 1017.7 0.0
23/08:00am 23.8 24.9 16.6 64 4.4 WSW 6 9 3 5 1017.6 1017.6 0.0
23/07:30am 23.2 25.9 18.7 76 2.8 N 2 7 1 4 1017.5 1017.5 0.0
23/07:00am 20.9 23.8 18.3 85 1.6 CALM 0 0 0 0 1017.1 1017.1 0.0
23/06:30am 19.4 21.7 17.7 90 1.0 WNW 2 9 1 5 1016.8 1016.8 0.0
23/06:00am 19.8 22.1 17.6 87 1.3 W 2 6 1 3 1016.6 1016.6 0.0
23/05:30am 20.4 22.8 18.0 86 1.5 W 2 6 1 3 1016.1 1016.1 0.0
23/05:00am 20.3 21.8 18.1 87 1.4 W 7 9 4 5 1016.1 1016.1 0.0
23/04:30am 20.1 23.1 18.4 90 1.1 CALM 0 0 0 0 1015.8 1015.8 0.0
23/04:00am 20.1 22.6 18.2 89 1.2 W 2 6 1 3 1015.7 1015.7 0.0
23/03:30am 20.1 23.0 18.2 89 1.2 CALM 0 0 0 0 1015.8 1015.8 0.0
23/03:00am 20.4 23.2 18.0 86 1.5 CALM 0 6 0 3 1015.9 1015.9 0.0
23/02:30am 20.5 23.3 17.9 85 1.6 CALM 0 0 0 0 1016.1 1016.1 0.0
23/02:00am 20.7 23.2 17.3 81 2.1 CALM 0 6 0 3 1016.3 1016.3 0.0
23/01:30am 21.2 23.8 17.6 80 2.2 CALM 0 6 0 3 1016.4 1016.4 0.0
23/01:00am 21.5 24.3 17.9 80 2.2 CALM 0 0 0 0 1016.6 1016.6 0.0
23/12:30am 22.0 24.4 18.0 78 2.5 ENE 2 6 1 3 1017.0 1017.0 0.0
23/12:00am 22.4 23.5 17.1 72 3.2 NE 7 7 4 4 1017.3 1017.3 0.0
 
Date/Time
EDT
Temp
°C
App
Temp
°C
Dew
Point
°C
Rel
Hum
%
Delta-T
°C
Wind Press
QNH
hPa
Press
MSL
hPa
Rain since
9am
mm
Dir  Spd
km/h
Gust
km/h
Spd
kts
Gust
kts
22/11:30pm 22.7 23.8 16.7 69 3.7 ESE 6 9 3 5 1017.7 1017.7 0.0
22/11:00pm 22.4 23.4 16.4 69 3.6 ESE 6 9 3 5 1017.7 1017.7 0.0
22/10:30pm 22.1 22.5 16.4 70 3.5 ESE 9 11 5 6 1017.8 1017.8 0.0
22/10:00pm 22.6 23.0 16.4 68 3.8 ESE 9 15 5 8 1017.7 1017.7 0.0
22/09:30pm 22.9 23.1 16.7 68 3.8 ESE 11 17 6 9 1017.6 1017.6 0.0
22/09:00pm 22.7 22.9 16.7 69 3.7 ESE 11 15 6 8 1017.4 1017.4 0.0
22/08:30pm 22.3 22.7 16.3 69 3.6 ESE 9 13 5 7 1017.3 1017.3 0.0
22/08:00pm 22.5 22.8 16.1 67 3.9 E 9 11 5 6 1016.9 1016.9 0.0
22/07:30pm 23.5 23.2 15.5 60 4.8 ESE 11 17 6 9 1016.5 1016.5 0.0
22/07:00pm 24.2 23.2 15.7 59 5.1 ESE 15 20 8 11 1016.2 1016.2 0.0
22/06:30pm 25.2 24.0 16.1 57 5.6 SE 17 22 9 12 1016.0 1016.0 0.0
22/06:00pm 25.7 24.9 16.0 55 5.9 SE 15 22 8 12 1015.8 1015.8 0.0
22/05:30pm 26.2 25.5 16.4 54 6.0 SE 15 24 8 13 1015.7 1015.7 0.0
22/05:00pm 26.4 25.8 17.5 58 5.6 ESE 17 26 9 14 1015.8 1015.8 0.0
22/04:30pm 25.1 23.6 16.3 58 5.4 SE 19 26 10 14 1016.0 1016.0 0.0
22/04:00pm 26.1 24.7 16.6 55 5.9 SE 19 26 10 14 1016.1 1016.1 0.0
22/03:30pm 26.5 25.3 17.0 56 5.9 SE 19 28 10 15 1016.3 1016.3 0.0
22/03:00pm 26.6 25.2 17.1 56 5.9 SE 20 30 11 16 1016.4 1016.4 0.0
22/02:30pm 25.9 23.9 15.6 53 6.3 SE 20 28 11 15 1016.6 1016.6 0.0
22/02:00pm 26.2 24.2 15.6 52 6.4 ESE 20 28 11 15 1016.8 1016.8 0.0
22/01:30pm 26.5 24.6 16.7 55 6.1 SE 22 30 12 16 1017.0 1017.0 0.0
22/01:00pm 26.6 25.3 16.8 55 6.1 ESE 19 26 10 14 1017.2 1017.2 0.0
22/12:30pm 26.5 25.0 16.7 55 6.1 ESE 20 30 11 16 1017.4 1017.4 0.0
22/12:00pm 26.8 25.5 17.3 56 5.9 SE 20 30 11 16 1017.6 1017.6 0.0
22/11:30am 26.0 24.4 16.0 54 6.1 ESE 19 26 10 14 1017.6 1017.6 0.0
22/11:00am 25.6 23.6 16.5 57 5.6 SE 22 30 12 16 1017.8 1017.8 0.0
22/10:30am 25.9 24.4 16.7 57 5.7 SE 20 28 11 15 1017.6 1017.6 0.0
22/10:00am 25.9 24.8 17.3 59 5.4 SSE 19 26 10 14 1017.5 1017.5 0.0
22/09:30am 24.9 24.9 17.1 62 4.8 SSE 13 20 7 11 1017.6 1017.6 0.0
22/09:00am 25.1 24.9 17.6 63 4.7 SSE 15 22 8 12 1017.3 1017.3 0.6
22/08:30am 25.5 25.1 17.2 60 5.2 SSE 15 22 8 12 1017.0 1017.0 0.6
22/08:00am 24.7 23.0 16.2 59 5.2 SE 20 28 11 15 1016.8 1016.8 0.6
22/07:30am 24.1 23.1 16.6 63 4.6 SSE 17 28 9 15 1016.4 1016.4 0.6
22/07:00am 23.5 22.9 17.5 69 3.7 SSE 17 22 9 12 1016.0 1016.0 0.6
22/06:30am 23.0 22.4 17.5 71 3.4 SSE 17 24 9 13 1015.5 1015.5 0.6
22/06:00am 23.3 23.1 17.7 71 3.5 SSE 15 20 8 11 1014.9 1014.9 0.6
22/05:30am 23.3 22.8 16.8 67 4.0 SSE 15 22 8 12 1014.7 1014.7 0.6
22/05:00am 23.4 23.0 17.2 68 3.8 SSE 15 24 8 13 1014.5 1014.5 0.6
22/04:30am 23.4 23.6 17.6 70 3.6 SSE 13 20 7 11 1014.3 1014.3 0.6
22/04:00am 23.5 23.0 17.9 71 3.5 SSE 17 20 9 11 1014.3 1014.3 0.6
22/03:30am 23.4 23.3 17.8 71 3.5 SSE 15 20 8 11 1014.3 1014.3 0.6
22/03:00am 23.3 23.1 17.5 70 3.6 SSE 15 22 8 12 1014.4 1014.4 0.6
22/02:30am 23.4 23.2 17.6 70 3.6 SSE 15 20 8 11 1014.4 1014.4 0.6
22/02:00am 23.4 22.6 18.1 72 3.3 SSE 19 28 10 15 1014.4 1014.4 0.6
22/01:30am 23.3 23.5 18.6 75 3.0 SSE 15 26 8 14 1014.5 1014.5 0.6
22/01:00am 22.9 23.3 19.1 79 2.4 SSE 15 22 8 12 1014.8 1014.8 0.6
22/12:30am 22.8 23.2 19.0 79 2.4 SE 15 22 8 12 1015.0 1015.0 0.6
22/12:00am 21.8 25.3 20.3 91 1.0 SW 2 7 1 4 1015.3 1015.3 0.6
 
Date/Time
EDT
Temp
°C
App
Temp
°C
Dew
Point
°C
Rel
Hum
%
Delta-T
°C
Wind Press
QNH
hPa
Press
MSL
hPa
Rain since
9am
mm
Dir  Spd
km/h
Gust
km/h
Spd
kts
Gust
kts
21/11:30pm 22.5 23.7 20.0 86 1.6 S 13 22 7 12 1015.2 1015.2 0.6
21/11:00pm 21.7 23.5 20.3 92 0.9 SSE 11 19 6 10 1015.3 1015.3 0.6
21/10:43pm 21.7 23.9 20.5 93 0.8 SSW 9 13 5 7 1015.2 1015.2 0.6
21/10:30pm 21.6 22.9 20.2 92 0.9 SSE 13 26 7 14 1015.2 1015.2 0.6
21/10:23pm 21.8 22.1 20.3 91 1.0 SSE 19 33 10 18 1015.3 1015.3 0.4

Other Formats:

Comma delimited format used in spreadsheet applications
http://www.bom.gov.au/fwo/IDN60801/IDN60801.94596.axf

JavaScript Object Notation format (JSON) in row-major order
http://www.bom.gov.au/fwo/IDN60801/IDN60801.94596.json